sensor_id;sensor_type;location;lat;lon;timestamp;P1;durP1;ratioP1;P2;durP2;ratioP2
74371;SDS011;62885;51.374;6.170;2023-08-17T00:02:21;4.85;;;2.33;;
74371;SDS011;62885;51.374;6.170;2023-08-17T00:04:47;4.80;;;2.20;;
74371;SDS011;62885;51.374;6.170;2023-08-17T00:07:12;3.38;;;1.50;;
74371;SDS011;62885;51.374;6.170;2023-08-17T00:09:38;5.07;;;2.45;;
74371;SDS011;62885;51.374;6.170;2023-08-17T00:12:04;4.53;;;2.00;;
74371;SDS011;62885;51.374;6.170;2023-08-17T00:14:29;4.22;;;1.98;;
74371;SDS011;62885;51.374;6.170;2023-08-17T00:16:55;6.30;;;2.20;;
74371;SDS011;62885;51.374;6.170;2023-08-17T00:19:21;5.07;;;2.20;;
74371;SDS011;62885;51.374;6.170;2023-08-17T00:21:46;4.80;;;2.17;;
74371;SDS011;62885;51.374;6.170;2023-08-17T00:24:12;3.90;;;2.15;;
74371;SDS011;62885;51.374;6.170;2023-08-17T00:26:37;5.15;;;2.13;;
74371;SDS011;62885;51.374;6.170;2023-08-17T00:29:03;5.70;;;2.47;;
74371;SDS011;62885;51.374;6.170;2023-08-17T00:31:28;5.28;;;2.15;;
74371;SDS011;62885;51.374;6.170;2023-08-17T00:33:54;4.88;;;2.10;;
74371;SDS011;62885;51.374;6.170;2023-08-17T00:36:19;3.60;;;2.10;;
74371;SDS011;62885;51.374;6.170;2023-08-17T00:38:44;7.97;;;2.75;;
74371;SDS011;62885;51.374;6.170;2023-08-17T00:41:10;5.15;;;2.22;;
74371;SDS011;62885;51.374;6.170;2023-08-17T00:43:35;4.60;;;2.30;;
74371;SDS011;62885;51.374;6.170;2023-08-17T00:46:00;6.45;;;2.47;;
74371;SDS011;62885;51.374;6.170;2023-08-17T00:48:27;3.72;;;2.28;;
74371;SDS011;62885;51.374;6.170;2023-08-17T00:50:54;5.60;;;2.35;;
74371;SDS011;62885;51.374;6.170;2023-08-17T00:53:20;5.47;;;2.55;;
74371;SDS011;62885;51.374;6.170;2023-08-17T00:55:47;5.70;;;2.40;;
74371;SDS011;62885;51.374;6.170;2023-08-17T00:58:14;11.00;;;2.47;;
74371;SDS011;62885;51.374;6.170;2023-08-17T01:00:39;4.78;;;2.60;;
74371;SDS011;62885;51.374;6.170;2023-08-17T01:03:05;4.55;;;2.25;;
74371;SDS011;62885;51.374;6.170;2023-08-17T01:05:30;6.20;;;2.90;;
74371;SDS011;62885;51.374;6.170;2023-08-17T01:07:58;6.57;;;2.65;;
74371;SDS011;62885;51.374;6.170;2023-08-17T01:10:23;5.32;;;2.83;;
74371;SDS011;62885;51.374;6.170;2023-08-17T01:13:08;5.70;;;2.40;;
74371;SDS011;62885;51.374;6.170;2023-08-17T01:20:37;5.55;;;3.00;;
74371;SDS011;62885;51.374;6.170;2023-08-17T01:23:06;10.73;;;3.03;;
74371;SDS011;62885;51.374;6.170;2023-08-17T01:25:31;6.68;;;3.13;;
74371;SDS011;62885;51.374;6.170;2023-08-17T01:28:01;7.63;;;2.55;;
74371;SDS011;62885;51.374;6.170;2023-08-17T01:30:28;6.45;;;2.85;;
74371;SDS011;62885;51.374;6.170;2023-08-17T01:33:14;5.93;;;2.92;;
74371;SDS011;62885;51.374;6.170;2023-08-17T01:38:42;6.15;;;2.60;;
74371;SDS011;62885;51.374;6.170;2023-08-17T01:41:09;6.32;;;2.92;;
74371;SDS011;62885;51.374;6.170;2023-08-17T01:43:41;6.05;;;2.80;;
74371;SDS011;62885;51.374;6.170;2023-08-17T01:46:12;5.78;;;2.88;;
74371;SDS011;62885;51.374;6.170;2023-08-17T01:48:41;5.13;;;2.72;;
74371;SDS011;62885;51.374;6.170;2023-08-17T01:51:07;6.75;;;3.03;;
74371;SDS011;62885;51.374;6.170;2023-08-17T01:53:33;4.97;;;2.38;;
74371;SDS011;62885;51.374;6.170;2023-08-17T01:55:59;4.60;;;2.30;;
74371;SDS011;62885;51.374;6.170;2023-08-17T01:58:24;4.80;;;2.53;;
74371;SDS011;62885;51.374;6.170;2023-08-17T02:00:49;4.00;;;2.38;;
74371;SDS011;62885;51.374;6.170;2023-08-17T02:03:15;5.13;;;2.72;;
74371;SDS011;62885;51.374;6.170;2023-08-17T02:05:44;6.75;;;2.85;;
74371;SDS011;62885;51.374;6.170;2023-08-17T02:08:12;5.05;;;2.03;;
74371;SDS011;62885;51.374;6.170;2023-08-17T02:10:38;4.68;;;2.40;;
74371;SDS011;62885;51.374;6.170;2023-08-17T02:13:03;5.50;;;2.42;;
74371;SDS011;62885;51.374;6.170;2023-08-17T02:15:29;7.68;;;2.47;;
74371;SDS011;62885;51.374;6.170;2023-08-17T02:17:56;6.28;;;3.22;;
74371;SDS011;62885;51.374;6.170;2023-08-17T02:20:22;4.90;;;2.38;;
74371;SDS011;62885;51.374;6.170;2023-08-17T02:22:47;4.47;;;2.35;;
74371;SDS011;62885;51.374;6.170;2023-08-17T02:25:12;5.80;;;2.20;;
74371;SDS011;62885;51.374;6.170;2023-08-17T02:27:38;5.05;;;2.30;;
74371;SDS011;62885;51.374;6.170;2023-08-17T02:30:03;7.60;;;2.80;;
74371;SDS011;62885;51.374;6.170;2023-08-17T02:32:29;5.38;;;2.45;;
74371;SDS011;62885;51.374;6.170;2023-08-17T02:34:54;8.48;;;2.70;;
74371;SDS011;62885;51.374;6.170;2023-08-17T02:37:20;7.60;;;2.45;;
74371;SDS011;62885;51.374;6.170;2023-08-17T02:39:45;5.50;;;2.40;;
74371;SDS011;62885;51.374;6.170;2023-08-17T02:42:10;5.97;;;2.60;;
74371;SDS011;62885;51.374;6.170;2023-08-17T02:44:36;5.80;;;2.60;;
74371;SDS011;62885;51.374;6.170;2023-08-17T02:47:01;6.07;;;2.30;;
74371;SDS011;62885;51.374;6.170;2023-08-17T02:49:27;6.85;;;2.55;;
74371;SDS011;62885;51.374;6.170;2023-08-17T02:51:52;4.68;;;2.15;;
74371;SDS011;62885;51.374;6.170;2023-08-17T02:54:17;5.22;;;2.67;;
74371;SDS011;62885;51.374;6.170;2023-08-17T02:56:43;5.00;;;2.15;;
74371;SDS011;62885;51.374;6.170;2023-08-17T02:59:08;3.45;;;2.20;;
74371;SDS011;62885;51.374;6.170;2023-08-17T03:01:33;5.45;;;2.40;;
74371;SDS011;62885;51.374;6.170;2023-08-17T03:03:59;8.20;;;2.45;;
74371;SDS011;62885;51.374;6.170;2023-08-17T03:06:24;4.25;;;2.05;;
74371;SDS011;62885;51.374;6.170;2023-08-17T03:08:49;5.38;;;2.55;;
74371;SDS011;62885;51.374;6.170;2023-08-17T03:11:17;5.25;;;2.15;;
74371;SDS011;62885;51.374;6.170;2023-08-17T03:13:42;4.75;;;2.25;;
74371;SDS011;62885;51.374;6.170;2023-08-17T03:16:08;5.13;;;2.50;;
74371;SDS011;62885;51.374;6.170;2023-08-17T03:18:33;4.53;;;2.28;;
74371;SDS011;62885;51.374;6.170;2023-08-17T03:20:58;6.78;;;2.30;;
74371;SDS011;62885;51.374;6.170;2023-08-17T03:23:24;8.00;;;2.58;;
74371;SDS011;62885;51.374;6.170;2023-08-17T03:25:53;5.38;;;2.35;;
74371;SDS011;62885;51.374;6.170;2023-08-17T03:28:18;6.43;;;2.40;;
74371;SDS011;62885;51.374;6.170;2023-08-17T03:30:44;7.53;;;3.17;;
74371;SDS011;62885;51.374;6.170;2023-08-17T03:33:09;5.55;;;2.53;;
74371;SDS011;62885;51.374;6.170;2023-08-17T03:35:35;3.63;;;2.30;;
74371;SDS011;62885;51.374;6.170;2023-08-17T03:38:00;5.38;;;2.50;;
74371;SDS011;62885;51.374;6.170;2023-08-17T03:40:25;5.30;;;2.55;;
74371;SDS011;62885;51.374;6.170;2023-08-17T03:42:51;5.97;;;2.95;;
74371;SDS011;62885;51.374;6.170;2023-08-17T03:45:17;4.00;;;2.30;;
74371;SDS011;62885;51.374;6.170;2023-08-17T03:47:43;5.35;;;2.80;;
74371;SDS011;62885;51.374;6.170;2023-08-17T03:50:08;7.55;;;2.95;;
74371;SDS011;62885;51.374;6.170;2023-08-17T03:52:34;6.57;;;3.38;;
74371;SDS011;62885;51.374;6.170;2023-08-17T03:55:00;6.72;;;3.00;;
74371;SDS011;62885;51.374;6.170;2023-08-17T03:57:25;7.03;;;2.80;;
74371;SDS011;62885;51.374;6.170;2023-08-17T03:59:50;5.35;;;2.55;;
74371;SDS011;62885;51.374;6.170;2023-08-17T04:02:16;6.57;;;3.03;;
74371;SDS011;62885;51.374;6.170;2023-08-17T04:04:41;8.18;;;2.90;;
74371;SDS011;62885;51.374;6.170;2023-08-17T04:07:06;5.25;;;2.70;;
74371;SDS011;62885;51.374;6.170;2023-08-17T04:09:32;4.45;;;2.65;;
74371;SDS011;62885;51.374;6.170;2023-08-17T04:11:58;8.38;;;2.80;;
74371;SDS011;62885;51.374;6.170;2023-08-17T04:14:24;5.70;;;2.67;;
74371;SDS011;62885;51.374;6.170;2023-08-17T04:16:49;6.35;;;3.15;;
74371;SDS011;62885;51.374;6.170;2023-08-17T04:19:15;9.90;;;3.20;;
74371;SDS011;62885;51.374;6.170;2023-08-17T04:21:40;9.23;;;3.13;;
74371;SDS011;62885;51.374;6.170;2023-08-17T04:24:05;7.15;;;3.17;;
74371;SDS011;62885;51.374;6.170;2023-08-17T04:26:31;6.10;;;3.08;;
74371;SDS011;62885;51.374;6.170;2023-08-17T04:28:56;5.72;;;2.90;;
74371;SDS011;62885;51.374;6.170;2023-08-17T04:31:22;7.45;;;3.13;;
74371;SDS011;62885;51.374;6.170;2023-08-17T04:33:48;6.50;;;2.92;;
74371;SDS011;62885;51.374;6.170;2023-08-17T04:36:13;6.28;;;2.88;;
74371;SDS011;62885;51.374;6.170;2023-08-17T04:38:38;6.38;;;3.05;;
74371;SDS011;62885;51.374;6.170;2023-08-17T04:41:04;8.95;;;3.15;;
74371;SDS011;62885;51.374;6.170;2023-08-17T04:43:29;8.85;;;3.00;;
74371;SDS011;62885;51.374;6.170;2023-08-17T04:45:55;6.97;;;3.30;;
74371;SDS011;62885;51.374;6.170;2023-08-17T04:48:20;5.57;;;2.90;;
74371;SDS011;62885;51.374;6.170;2023-08-17T04:50:45;9.93;;;3.03;;
74371;SDS011;62885;51.374;6.170;2023-08-17T04:53:11;9.85;;;2.88;;
74371;SDS011;62885;51.374;6.170;2023-08-17T04:55:36;6.90;;;3.63;;
74371;SDS011;62885;51.374;6.170;2023-08-17T04:58:02;6.28;;;3.03;;
74371;SDS011;62885;51.374;6.170;2023-08-17T05:00:27;9.20;;;3.00;;
74371;SDS011;62885;51.374;6.170;2023-08-17T05:02:56;8.23;;;3.00;;
74371;SDS011;62885;51.374;6.170;2023-08-17T05:05:23;6.60;;;3.17;;
74371;SDS011;62885;51.374;6.170;2023-08-17T05:07:48;9.43;;;3.15;;
74371;SDS011;62885;51.374;6.170;2023-08-17T05:10:14;6.90;;;3.20;;
74371;SDS011;62885;51.374;6.170;2023-08-17T05:12:40;9.40;;;3.05;;
74371;SDS011;62885;51.374;6.170;2023-08-17T05:15:05;7.28;;;3.05;;
74371;SDS011;62885;51.374;6.170;2023-08-17T05:17:31;6.53;;;3.53;;
74371;SDS011;62885;51.374;6.170;2023-08-17T05:19:57;6.22;;;3.05;;
74371;SDS011;62885;51.374;6.170;2023-08-17T05:22:22;7.05;;;3.05;;
74371;SDS011;62885;51.374;6.170;2023-08-17T05:24:47;6.53;;;3.05;;
74371;SDS011;62885;51.374;6.170;2023-08-17T05:27:13;9.52;;;3.60;;
74371;SDS011;62885;51.374;6.170;2023-08-17T05:29:38;9.50;;;3.25;;
74371;SDS011;62885;51.374;6.170;2023-08-17T05:32:04;10.25;;;3.60;;
74371;SDS011;62885;51.374;6.170;2023-08-17T05:34:30;7.60;;;3.17;;
74371;SDS011;62885;51.374;6.170;2023-08-17T05:36:57;6.47;;;2.95;;
74371;SDS011;62885;51.374;6.170;2023-08-17T05:39:23;5.88;;;3.30;;
74371;SDS011;62885;51.374;6.170;2023-08-17T05:41:48;7.43;;;3.20;;
74371;SDS011;62885;51.374;6.170;2023-08-17T05:44:14;7.85;;;3.20;;
74371;SDS011;62885;51.374;6.170;2023-08-17T05:46:40;6.95;;;3.13;;
74371;SDS011;62885;51.374;6.170;2023-08-17T05:49:06;6.85;;;3.10;;
74371;SDS011;62885;51.374;6.170;2023-08-17T05:51:31;8.82;;;3.20;;
74371;SDS011;62885;51.374;6.170;2023-08-17T05:53:56;6.72;;;3.10;;
74371;SDS011;62885;51.374;6.170;2023-08-17T05:56:22;7.07;;;3.08;;
74371;SDS011;62885;51.374;6.170;2023-08-17T05:58:47;5.72;;;3.05;;
74371;SDS011;62885;51.374;6.170;2023-08-17T06:01:13;6.78;;;2.70;;
74371;SDS011;62885;51.374;6.170;2023-08-17T06:03:39;6.47;;;3.22;;
74371;SDS011;62885;51.374;6.170;2023-08-17T06:06:04;7.72;;;3.20;;
74371;SDS011;62885;51.374;6.170;2023-08-17T06:08:33;6.95;;;2.92;;
74371;SDS011;62885;51.374;6.170;2023-08-17T06:10:58;5.35;;;2.80;;
74371;SDS011;62885;51.374;6.170;2023-08-17T06:13:24;5.07;;;2.75;;
74371;SDS011;62885;51.374;6.170;2023-08-17T06:15:49;6.05;;;2.83;;
74371;SDS011;62885;51.374;6.170;2023-08-17T06:18:15;6.28;;;3.33;;
74371;SDS011;62885;51.374;6.170;2023-08-17T06:20:40;6.68;;;3.10;;
74371;SDS011;62885;51.374;6.170;2023-08-17T06:23:06;7.18;;;3.22;;
74371;SDS011;62885;51.374;6.170;2023-08-17T06:25:31;7.32;;;3.17;;
74371;SDS011;62885;51.374;6.170;2023-08-17T06:27:57;7.32;;;3.00;;
74371;SDS011;62885;51.374;6.170;2023-08-17T06:30:22;6.70;;;3.33;;
74371;SDS011;62885;51.374;6.170;2023-08-17T06:32:50;7.55;;;2.85;;
74371;SDS011;62885;51.374;6.170;2023-08-17T06:35:15;6.57;;;3.63;;
74371;SDS011;62885;51.374;6.170;2023-08-17T06:37:41;7.72;;;3.08;;
74371;SDS011;62885;51.374;6.170;2023-08-17T06:40:06;6.20;;;2.70;;
74371;SDS011;62885;51.374;6.170;2023-08-17T06:42:34;7.32;;;3.17;;
74371;SDS011;62885;51.374;6.170;2023-08-17T06:44:59;6.60;;;2.92;;
74371;SDS011;62885;51.374;6.170;2023-08-17T06:47:24;5.50;;;2.65;;
74371;SDS011;62885;51.374;6.170;2023-08-17T06:49:50;6.80;;;2.97;;
74371;SDS011;62885;51.374;6.170;2023-08-17T06:52:15;9.00;;;3.25;;
74371;SDS011;62885;51.374;6.170;2023-08-17T06:54:40;8.18;;;3.58;;
74371;SDS011;62885;51.374;6.170;2023-08-17T06:57:06;6.78;;;3.05;;
74371;SDS011;62885;51.374;6.170;2023-08-17T06:59:31;7.85;;;3.88;;
74371;SDS011;62885;51.374;6.170;2023-08-17T07:01:58;8.48;;;3.28;;
74371;SDS011;62885;51.374;6.170;2023-08-17T07:04:23;7.22;;;3.28;;
74371;SDS011;62885;51.374;6.170;2023-08-17T07:06:49;9.55;;;4.32;;
74371;SDS011;62885;51.374;6.170;2023-08-17T07:09:14;8.55;;;3.95;;
74371;SDS011;62885;51.374;6.170;2023-08-17T07:11:40;7.97;;;3.90;;
74371;SDS011;62885;51.374;6.170;2023-08-17T07:14:05;8.80;;;4.22;;
74371;SDS011;62885;51.374;6.170;2023-08-17T07:16:33;9.93;;;4.28;;
74371;SDS011;62885;51.374;6.170;2023-08-17T07:18:59;8.90;;;4.28;;
74371;SDS011;62885;51.374;6.170;2023-08-17T07:21:25;10.00;;;4.82;;
74371;SDS011;62885;51.374;6.170;2023-08-17T07:23:51;9.70;;;4.18;;
74371;SDS011;62885;51.374;6.170;2023-08-17T07:26:16;11.85;;;5.05;;
74371;SDS011;62885;51.374;6.170;2023-08-17T07:28:44;13.07;;;5.55;;
74371;SDS011;62885;51.374;6.170;2023-08-17T07:31:10;11.18;;;5.90;;
74371;SDS011;62885;51.374;6.170;2023-08-17T07:33:36;14.55;;;5.80;;
74371;SDS011;62885;51.374;6.170;2023-08-17T07:36:01;12.27;;;5.45;;
74371;SDS011;62885;51.374;6.170;2023-08-17T07:38:27;10.27;;;5.60;;
74371;SDS011;62885;51.374;6.170;2023-08-17T07:40:52;11.30;;;4.65;;
74371;SDS011;62885;51.374;6.170;2023-08-17T07:43:17;10.15;;;4.82;;
74371;SDS011;62885;51.374;6.170;2023-08-17T07:45:43;9.75;;;5.15;;
74371;SDS011;62885;51.374;6.170;2023-08-17T07:48:08;13.27;;;6.38;;
74371;SDS011;62885;51.374;6.170;2023-08-17T07:50:33;13.10;;;6.18;;
74371;SDS011;62885;51.374;6.170;2023-08-17T07:52:59;15.18;;;7.20;;
74371;SDS011;62885;51.374;6.170;2023-08-17T07:55:25;12.77;;;6.38;;
74371;SDS011;62885;51.374;6.170;2023-08-17T07:57:51;11.50;;;5.70;;
74371;SDS011;62885;51.374;6.170;2023-08-17T08:00:16;12.38;;;6.10;;
74371;SDS011;62885;51.374;6.170;2023-08-17T08:02:42;10.13;;;6.63;;
74371;SDS011;62885;51.374;6.170;2023-08-17T08:05:07;10.15;;;6.20;;
74371;SDS011;62885;51.374;6.170;2023-08-17T08:07:33;11.40;;;6.43;;
74371;SDS011;62885;51.374;6.170;2023-08-17T08:09:58;11.98;;;6.18;;
74371;SDS011;62885;51.374;6.170;2023-08-17T08:12:24;12.05;;;6.72;;
74371;SDS011;62885;51.374;6.170;2023-08-17T08:14:49;12.63;;;4.95;;
74371;SDS011;62885;51.374;6.170;2023-08-17T08:17:16;12.00;;;5.60;;
74371;SDS011;62885;51.374;6.170;2023-08-17T08:19:41;12.38;;;6.82;;
74371;SDS011;62885;51.374;6.170;2023-08-17T08:22:06;13.90;;;7.13;;
74371;SDS011;62885;51.374;6.170;2023-08-17T08:24:32;13.13;;;7.25;;
74371;SDS011;62885;51.374;6.170;2023-08-17T08:26:58;14.70;;;6.50;;
74371;SDS011;62885;51.374;6.170;2023-08-17T08:29:24;11.60;;;6.40;;
74371;SDS011;62885;51.374;6.170;2023-08-17T08:31:49;15.82;;;7.80;;
74371;SDS011;62885;51.374;6.170;2023-08-17T08:34:15;13.77;;;8.27;;
74371;SDS011;62885;51.374;6.170;2023-08-17T08:36:40;13.65;;;7.80;;
74371;SDS011;62885;51.374;6.170;2023-08-17T08:39:05;13.82;;;8.07;;
74371;SDS011;62885;51.374;6.170;2023-08-17T08:41:31;11.88;;;7.22;;
74371;SDS011;62885;51.374;6.170;2023-08-17T08:43:57;16.63;;;7.28;;
74371;SDS011;62885;51.374;6.170;2023-08-17T08:46:23;14.65;;;8.00;;
74371;SDS011;62885;51.374;6.170;2023-08-17T08:48:54;17.55;;;7.53;;
74371;SDS011;62885;51.374;6.170;2023-08-17T08:51:23;13.90;;;7.10;;
74371;SDS011;62885;51.374;6.170;2023-08-17T08:53:56;12.23;;;6.60;;
74371;SDS011;62885;51.374;6.170;2023-08-17T08:56:27;11.13;;;5.93;;
74371;SDS011;62885;51.374;6.170;2023-08-17T08:58:56;14.82;;;6.15;;
74371;SDS011;62885;51.374;6.170;2023-08-17T09:01:23;10.80;;;6.20;;
74371;SDS011;62885;51.374;6.170;2023-08-17T09:03:50;14.70;;;7.00;;
74371;SDS011;62885;51.374;6.170;2023-08-17T09:06:17;13.02;;;7.28;;
74371;SDS011;62885;51.374;6.170;2023-08-17T09:08:44;11.98;;;6.53;;
74371;SDS011;62885;51.374;6.170;2023-08-17T09:11:10;13.57;;;6.82;;
74371;SDS011;62885;51.374;6.170;2023-08-17T09:13:36;16.77;;;7.80;;
74371;SDS011;62885;51.374;6.170;2023-08-17T09:16:01;13.50;;;7.22;;
74371;SDS011;62885;51.374;6.170;2023-08-17T09:18:26;11.20;;;6.78;;
74371;SDS011;62885;51.374;6.170;2023-08-17T09:20:52;13.35;;;6.88;;
74371;SDS011;62885;51.374;6.170;2023-08-17T09:23:18;13.98;;;6.78;;
74371;SDS011;62885;51.374;6.170;2023-08-17T09:25:46;15.63;;;7.93;;
74371;SDS011;62885;51.374;6.170;2023-08-17T09:28:13;16.50;;;7.65;;
74371;SDS011;62885;51.374;6.170;2023-08-17T09:30:49;18.52;;;9.13;;
74371;SDS011;62885;51.374;6.170;2023-08-17T09:33:24;14.40;;;7.97;;
74371;SDS011;62885;51.374;6.170;2023-08-17T09:35:51;13.43;;;7.70;;
74371;SDS011;62885;51.374;6.170;2023-08-17T09:38:18;15.35;;;7.60;;
74371;SDS011;62885;51.374;6.170;2023-08-17T09:40:45;16.77;;;8.07;;
74371;SDS011;62885;51.374;6.170;2023-08-17T09:43:11;12.90;;;7.82;;
74371;SDS011;62885;51.374;6.170;2023-08-17T09:45:38;13.80;;;7.53;;
74371;SDS011;62885;51.374;6.170;2023-08-17T09:48:04;15.25;;;7.50;;
74371;SDS011;62885;51.374;6.170;2023-08-17T09:50:31;14.27;;;7.15;;
74371;SDS011;62885;51.374;6.170;2023-08-17T09:52:56;14.20;;;7.47;;
74371;SDS011;62885;51.374;6.170;2023-08-17T09:55:22;17.00;;;6.72;;
74371;SDS011;62885;51.374;6.170;2023-08-17T09:57:48;14.38;;;6.70;;
74371;SDS011;62885;51.374;6.170;2023-08-17T10:00:15;13.98;;;6.68;;
74371;SDS011;62885;51.374;6.170;2023-08-17T10:02:42;13.93;;;7.25;;
74371;SDS011;62885;51.374;6.170;2023-08-17T10:05:14;13.10;;;7.63;;
74371;SDS011;62885;51.374;6.170;2023-08-17T10:07:43;17.10;;;8.00;;
74371;SDS011;62885;51.374;6.170;2023-08-17T10:10:24;19.88;;;7.63;;
74371;SDS011;62885;51.374;6.170;2023-08-17T10:13:07;14.82;;;8.38;;
74371;SDS011;62885;51.374;6.170;2023-08-17T10:15:36;15.73;;;7.95;;
74371;SDS011;62885;51.374;6.170;2023-08-17T10:18:15;15.30;;;8.75;;
74371;SDS011;62885;51.374;6.170;2023-08-17T10:20:49;12.35;;;7.10;;
74371;SDS011;62885;51.374;6.170;2023-08-17T10:23:24;15.02;;;8.05;;
74371;SDS011;62885;51.374;6.170;2023-08-17T10:25:51;17.58;;;9.18;;
74371;SDS011;62885;51.374;6.170;2023-08-17T10:28:17;15.85;;;8.93;;
74371;SDS011;62885;51.374;6.170;2023-08-17T10:30:43;15.15;;;7.72;;
74371;SDS011;62885;51.374;6.170;2023-08-17T10:33:09;18.13;;;8.88;;
74371;SDS011;62885;51.374;6.170;2023-08-17T10:35:35;14.30;;;8.20;;
74371;SDS011;62885;51.374;6.170;2023-08-17T10:38:02;13.68;;;8.48;;
74371;SDS011;62885;51.374;6.170;2023-08-17T10:40:34;16.17;;;9.40;;
74371;SDS011;62885;51.374;6.170;2023-08-17T10:43:01;14.85;;;9.10;;
74371;SDS011;62885;51.374;6.170;2023-08-17T10:45:30;20.55;;;10.10;;
74371;SDS011;62885;51.374;6.170;2023-08-17T10:50:34;17.77;;;10.50;;
74371;SDS011;62885;51.374;6.170;2023-08-17T10:53:19;17.73;;;8.60;;
74371;SDS011;62885;51.374;6.170;2023-08-17T10:55:45;16.38;;;8.85;;
74371;SDS011;62885;51.374;6.170;2023-08-17T10:58:14;15.75;;;9.32;;
74371;SDS011;62885;51.374;6.170;2023-08-17T11:00:40;16.75;;;9.10;;
74371;SDS011;62885;51.374;6.170;2023-08-17T11:03:07;16.25;;;9.30;;
74371;SDS011;62885;51.374;6.170;2023-08-17T11:08:34;15.52;;;9.40;;
74371;SDS011;62885;51.374;6.170;2023-08-17T11:11:09;16.55;;;9.38;;
74371;SDS011;62885;51.374;6.170;2023-08-17T11:13:37;18.15;;;9.00;;
74371;SDS011;62885;51.374;6.170;2023-08-17T11:16:04;16.55;;;9.13;;
74371;SDS011;62885;51.374;6.170;2023-08-17T11:18:30;15.05;;;9.02;;
74371;SDS011;62885;51.374;6.170;2023-08-17T11:20:56;16.92;;;9.60;;
74371;SDS011;62885;51.374;6.170;2023-08-17T11:23:22;19.58;;;9.35;;
74371;SDS011;62885;51.374;6.170;2023-08-17T11:25:49;16.92;;;9.48;;
74371;SDS011;62885;51.374;6.170;2023-08-17T11:28:16;15.23;;;8.68;;
74371;SDS011;62885;51.374;6.170;2023-08-17T11:30:42;17.83;;;9.00;;
74371;SDS011;62885;51.374;6.170;2023-08-17T11:33:08;18.63;;;9.63;;
74371;SDS011;62885;51.374;6.170;2023-08-17T11:35:34;18.30;;;10.30;;
74371;SDS011;62885;51.374;6.170;2023-08-17T11:38:00;15.68;;;9.15;;
74371;SDS011;62885;51.374;6.170;2023-08-17T11:40:26;14.15;;;8.80;;
74371;SDS011;62885;51.374;6.170;2023-08-17T11:42:52;15.73;;;8.13;;
74371;SDS011;62885;51.374;6.170;2023-08-17T11:45:18;17.60;;;9.43;;
74371;SDS011;62885;51.374;6.170;2023-08-17T11:47:46;16.70;;;9.43;;
74371;SDS011;62885;51.374;6.170;2023-08-17T11:50:12;16.75;;;9.52;;
74371;SDS011;62885;51.374;6.170;2023-08-17T11:52:38;16.25;;;10.52;;
74371;SDS011;62885;51.374;6.170;2023-08-17T11:55:06;17.52;;;10.40;;
74371;SDS011;62885;51.374;6.170;2023-08-17T11:57:36;19.90;;;10.98;;
74371;SDS011;62885;51.374;6.170;2023-08-17T12:00:03;19.45;;;10.80;;
74371;SDS011;62885;51.374;6.170;2023-08-17T12:02:37;18.05;;;10.70;;
74371;SDS011;62885;51.374;6.170;2023-08-17T12:05:07;17.30;;;10.13;;
74371;SDS011;62885;51.374;6.170;2023-08-17T12:07:34;16.60;;;10.70;;
74371;SDS011;62885;51.374;6.170;2023-08-17T12:10:02;17.13;;;10.65;;
74371;SDS011;62885;51.374;6.170;2023-08-17T12:12:28;19.38;;;11.25;;
74371;SDS011;62885;51.374;6.170;2023-08-17T12:14:54;24.40;;;12.32;;
74371;SDS011;62885;51.374;6.170;2023-08-17T12:17:20;18.15;;;9.73;;
74371;SDS011;62885;51.374;6.170;2023-08-17T12:19:49;18.40;;;12.00;;
74371;SDS011;62885;51.374;6.170;2023-08-17T12:22:16;19.00;;;11.63;;
74371;SDS011;62885;51.374;6.170;2023-08-17T12:24:42;17.98;;;10.85;;
74371;SDS011;62885;51.374;6.170;2023-08-17T12:27:08;18.13;;;11.45;;
74371;SDS011;62885;51.374;6.170;2023-08-17T12:29:45;24.08;;;13.43;;
74371;SDS011;62885;51.374;6.170;2023-08-17T12:32:13;23.27;;;14.05;;
74371;SDS011;62885;51.374;6.170;2023-08-17T12:34:39;22.88;;;13.93;;
74371;SDS011;62885;51.374;6.170;2023-08-17T12:37:04;23.15;;;14.10;;
74371;SDS011;62885;51.374;6.170;2023-08-17T12:39:30;24.17;;;14.35;;
74371;SDS011;62885;51.374;6.170;2023-08-17T12:41:55;28.70;;;16.00;;
74371;SDS011;62885;51.374;6.170;2023-08-17T12:44:21;21.85;;;14.35;;
74371;SDS011;62885;51.374;6.170;2023-08-17T12:46:46;27.05;;;15.90;;
74371;SDS011;62885;51.374;6.170;2023-08-17T12:49:11;25.55;;;15.68;;
74371;SDS011;62885;51.374;6.170;2023-08-17T12:51:37;24.50;;;15.73;;
74371;SDS011;62885;51.374;6.170;2023-08-17T12:54:03;26.30;;;16.25;;
74371;SDS011;62885;51.374;6.170;2023-08-17T12:56:28;26.88;;;17.00;;
74371;SDS011;62885;51.374;6.170;2023-08-17T12:58:54;25.67;;;16.65;;
74371;SDS011;62885;51.374;6.170;2023-08-17T13:01:19;26.33;;;16.52;;
74371;SDS011;62885;51.374;6.170;2023-08-17T13:03:44;26.52;;;16.50;;
74371;SDS011;62885;51.374;6.170;2023-08-17T13:06:10;23.65;;;15.63;;
74371;SDS011;62885;51.374;6.170;2023-08-17T13:08:35;24.80;;;15.93;;
74371;SDS011;62885;51.374;6.170;2023-08-17T13:11:01;27.85;;;17.15;;
74371;SDS011;62885;51.374;6.170;2023-08-17T13:13:26;25.95;;;16.00;;
74371;SDS011;62885;51.374;6.170;2023-08-17T13:15:52;29.55;;;16.38;;
74371;SDS011;62885;51.374;6.170;2023-08-17T13:18:17;24.55;;;15.80;;
74371;SDS011;62885;51.374;6.170;2023-08-17T13:20:43;26.90;;;16.40;;
74371;SDS011;62885;51.374;6.170;2023-08-17T13:23:09;28.13;;;16.30;;
74371;SDS011;62885;51.374;6.170;2023-08-17T13:25:35;28.85;;;17.10;;
74371;SDS011;62885;51.374;6.170;2023-08-17T13:28:01;27.10;;;16.98;;
74371;SDS011;62885;51.374;6.170;2023-08-17T13:30:26;26.73;;;15.90;;
74371;SDS011;62885;51.374;6.170;2023-08-17T13:32:52;27.13;;;16.40;;
74371;SDS011;62885;51.374;6.170;2023-08-17T13:35:17;33.33;;;17.73;;
74371;SDS011;62885;51.374;6.170;2023-08-17T13:37:42;32.05;;;17.38;;
74371;SDS011;62885;51.374;6.170;2023-08-17T13:40:08;29.85;;;18.85;;
74371;SDS011;62885;51.374;6.170;2023-08-17T13:42:34;28.50;;;17.00;;
74371;SDS011;62885;51.374;6.170;2023-08-17T13:44:59;30.73;;;16.92;;
74371;SDS011;62885;51.374;6.170;2023-08-17T13:47:28;28.13;;;17.77;;
74371;SDS011;62885;51.374;6.170;2023-08-17T13:49:54;27.10;;;16.15;;
74371;SDS011;62885;51.374;6.170;2023-08-17T13:52:20;28.00;;;16.42;;
74371;SDS011;62885;51.374;6.170;2023-08-17T13:54:45;24.77;;;15.43;;
74371;SDS011;62885;51.374;6.170;2023-08-17T13:57:10;26.92;;;15.27;;
74371;SDS011;62885;51.374;6.170;2023-08-17T13:59:36;23.65;;;14.38;;
74371;SDS011;62885;51.374;6.170;2023-08-17T14:02:01;22.23;;;14.48;;
74371;SDS011;62885;51.374;6.170;2023-08-17T14:04:27;26.52;;;16.35;;
74371;SDS011;62885;51.374;6.170;2023-08-17T14:06:52;30.08;;;17.35;;
74371;SDS011;62885;51.374;6.170;2023-08-17T14:09:18;30.30;;;17.02;;
74371;SDS011;62885;51.374;6.170;2023-08-17T14:11:43;32.70;;;19.73;;
74371;SDS011;62885;51.374;6.170;2023-08-17T14:14:09;29.52;;;18.70;;
74371;SDS011;62885;51.374;6.170;2023-08-17T14:16:35;37.33;;;20.35;;
74371;SDS011;62885;51.374;6.170;2023-08-17T14:19:01;33.20;;;19.63;;
74371;SDS011;62885;51.374;6.170;2023-08-17T14:21:26;21.95;;;13.75;;
74371;SDS011;62885;51.374;6.170;2023-08-17T14:23:51;18.52;;;11.48;;
74371;SDS011;62885;51.374;6.170;2023-08-17T14:26:17;16.83;;;10.35;;
74371;SDS011;62885;51.374;6.170;2023-08-17T14:28:42;16.02;;;11.20;;
74371;SDS011;62885;51.374;6.170;2023-08-17T14:31:09;16.33;;;10.13;;
74371;SDS011;62885;51.374;6.170;2023-08-17T14:33:36;18.02;;;9.88;;
74371;SDS011;62885;51.374;6.170;2023-08-17T14:36:02;18.83;;;9.90;;
74371;SDS011;62885;51.374;6.170;2023-08-17T14:38:27;15.52;;;9.80;;
74371;SDS011;62885;51.374;6.170;2023-08-17T14:40:53;17.02;;;10.70;;
74371;SDS011;62885;51.374;6.170;2023-08-17T14:43:18;14.82;;;9.10;;
74371;SDS011;62885;51.374;6.170;2023-08-17T14:45:43;18.90;;;9.68;;
74371;SDS011;62885;51.374;6.170;2023-08-17T14:48:09;17.73;;;10.13;;